You are not logged in, Click here to log in
ICAO: YSSY Country: 新南威爾斯州雪梨馬斯覺
Latitude: -33.9399 Longitude: 151.175
Total Arrivals: 24 Total Departures: 22
Latest Arrival: AQE7422 (YMML-YSSY)Jason. Li Latest Departure: JQ745 (YSSY-YMLT)Jason. Li
Scenery:
METAR : YSSY 190800Z 07005KT CAVOK 16/06 Q1020 NOSIG

金斯福德·史密斯國際機場(雪梨)SYD